createdAt,value
2022-08-07T00:02:39.984Z,101179.66
2022-08-07T00:05:07.268Z,101175.94
2022-08-07T00:07:41.188Z,101178.13
2022-08-07T00:10:25.882Z,101180.84
2022-08-07T00:13:01.213Z,101180.63
2022-08-07T00:15:37.768Z,101182.31
2022-08-07T00:18:23.960Z,101178.94
2022-08-07T00:21:03.515Z,101187.50
2022-08-07T00:23:41.687Z,101190.22
2022-08-07T00:26:31.358Z,101180.13
2022-08-07T00:29:03.263Z,101175.69
2022-08-07T00:31:41.194Z,101177.97
2022-08-07T00:34:11.764Z,101175.94
2022-08-07T00:36:42.724Z,101174.94
2022-08-07T00:39:17.214Z,101181.59
2022-08-07T00:42:01.923Z,101177.66
2022-08-07T00:44:38.237Z,101172.53
2022-08-07T00:47:15.642Z,101182.59
2022-08-07T00:50:21.217Z,101180.13
2022-08-07T00:52:53.137Z,101180.84
2022-08-07T00:55:25.475Z,101178.19
2022-08-07T00:58:14.494Z,101182.88
2022-08-07T01:00:54.039Z,101171.75
2022-08-07T01:03:54.711Z,101180.38
2022-08-07T01:06:15.840Z,101175.69
2022-08-07T01:08:53.299Z,101185.63
2022-08-07T01:12:09.778Z,101185.25
2022-08-07T01:14:16.878Z,101194.63
2022-08-07T01:16:48.067Z,101195.41
2022-08-07T01:19:24.043Z,101189.97
2022-08-07T01:21:57.078Z,101184.31
2022-08-07T01:24:31.832Z,101179.28
2022-08-07T01:27:03.445Z,101163.84
2022-08-07T01:29:35.405Z,101150.97
2022-08-07T01:32:12.318Z,101128.50
2022-08-07T01:34:47.678Z,101130.69
2022-08-07T01:37:25.155Z,101128.44
2022-08-07T01:40:01.148Z,101128.53
2022-08-07T01:42:57.669Z,101131.09
2022-08-07T01:45:36.892Z,101134.25
2022-08-07T01:48:30.706Z,101130.78
2022-08-07T01:51:24.574Z,101149.84
2022-08-07T01:54:11.652Z,101152.06
2022-08-07T01:56:59.092Z,101154.53
2022-08-07T01:59:35.454Z,101162.41
2022-08-07T02:02:11.425Z,101161.69
2022-08-07T02:05:16.049Z,101153.78
2022-08-07T02:08:13.946Z,101139.50
2022-08-07T02:10:55.369Z,101134.31
2022-08-07T02:14:00.730Z,101120.78
2022-08-07T02:16:33.001Z,101120.31
2022-08-07T02:20:06.899Z,101108.47
2022-08-07T02:22:00.714Z,101090.97
2022-08-07T02:24:34.382Z,101062.81
2022-08-07T02:27:04.686Z,101026.78
2022-08-07T02:29:43.436Z,101003.09
2022-08-07T02:32:30.218Z,101010.28
2022-08-07T02:35:02.208Z,101027.03
2022-08-07T02:37:43.862Z,101020.91
2022-08-07T02:40:31.077Z,100990.16
2022-08-07T02:43:08.246Z,100917.63
2022-08-07T02:46:00.931Z,100874.41
2022-08-07T02:48:35.359Z,100832.88
2022-08-07T02:51:29.078Z,100816.66
2022-08-07T02:54:10.770Z,100867.25
2022-08-07T02:56:45.514Z,100884.25
2022-08-07T02:59:23.876Z,100908.06
2022-08-07T03:02:03.137Z,100917.97
2022-08-07T03:04:34.111Z,100918.97
2022-08-07T03:07:10.671Z,100932.91
2022-08-07T03:09:47.218Z,100943.78
2022-08-07T03:12:22.651Z,100951.50
2022-08-07T03:15:09.050Z,100951.47
2022-08-07T03:17:53.621Z,100937.06
2022-08-07T03:20:28.442Z,100937.66
2022-08-07T03:23:00.250Z,100940.78
2022-08-07T03:25:40.209Z,100953.25
2022-08-07T03:28:37.431Z,100949.50
2022-08-07T03:31:24.492Z,100957.34
2022-08-07T03:34:03.690Z,100959.81
2022-08-07T03:36:37.502Z,100962.81
2022-08-07T03:39:15.364Z,100970.44
2022-08-07T03:41:50.778Z,100974.84
2022-08-07T03:44:34.247Z,100967.94
2022-08-07T03:47:13.692Z,100956.91
2022-08-07T03:49:53.530Z,100959.81
2022-08-07T03:52:31.081Z,100955.91
2022-08-07T03:55:07.839Z,100956.44
2022-08-07T03:58:35.501Z,100956.22
2022-08-07T04:00:46.156Z,100957.13
2022-08-07T04:03:18.140Z,100968.66
2022-08-07T04:05:58.653Z,100972.03
2022-08-07T04:08:31.898Z,100964.84
2022-08-07T04:11:15.009Z,100992.06
2022-08-07T04:14:09.872Z,101000.56
2022-08-07T04:16:58.710Z,101000.13
2022-08-07T04:19:51.018Z,101020.31
2022-08-07T04:22:22.887Z,101028.34
2022-08-07T04:24:54.194Z,101037.97
2022-08-07T04:27:25.710Z,101048.13
2022-08-07T04:30:04.633Z,101069.84
2022-08-07T04:32:47.935Z,101081.31
2022-08-07T04:35:23.190Z,101082.66
2022-08-07T04:38:03.092Z,101092.25
2022-08-07T04:40:51.487Z,101091.81
2022-08-07T04:44:10.452Z,101086.28
2022-08-07T04:47:08.105Z,101082.78
2022-08-07T04:50:04.019Z,101085.19
2022-08-07T04:52:57.308Z,101086.31
2022-08-07T04:58:16.148Z,101080.13
2022-08-07T05:02:07.072Z,101085.53
2022-08-07T05:05:52.561Z,101074.72
2022-08-07T05:08:14.061Z,101077.53
2022-08-07T05:10:51.183Z,101090.31
2022-08-07T05:14:56.173Z,101076.34
2022-08-07T05:16:34.503Z,101094.59
2022-08-07T05:19:32.750Z,101092.34
2022-08-07T05:22:12.479Z,101108.78
2022-08-07T05:24:52.476Z,101110.78
2022-08-07T05:28:03.224Z,101108.13
2022-08-07T05:30:29.922Z,101091.75
2022-08-07T05:33:03.270Z,101070.56
2022-08-07T05:35:41.624Z,101057.72
2022-08-07T05:38:59.660Z,101078.13
2022-08-07T05:41:14.336Z,101097.34
2022-08-07T05:44:12.071Z,101097.38
2022-08-07T05:46:51.102Z,101092.09
2022-08-07T05:49:26.780Z,101086.78
2022-08-07T05:51:57.854Z,101083.84
2022-08-07T05:54:53.224Z,101069.94
2022-08-07T05:57:22.599Z,101079.41
2022-08-07T06:00:02.005Z,101078.22
2022-08-07T06:02:43.039Z,101061.66
2022-08-07T06:05:16.763Z,101055.66
2022-08-07T06:08:29.954Z,101054.22
2022-08-07T06:10:45.667Z,101063.13
2022-08-07T06:13:16.933Z,101061.13
2022-08-07T06:15:50.660Z,101063.16
2022-08-07T06:18:28.108Z,101062.19
2022-08-07T06:22:16.732Z,101063.88
2022-08-07T06:24:37.844Z,101059.47
2022-08-07T06:26:45.211Z,101054.81
2022-08-07T06:29:18.716Z,101039.06
2022-08-07T06:31:50.685Z,101037.09
2022-08-07T06:34:30.419Z,101037.00
2022-08-07T06:37:02.583Z,101037.69
2022-08-07T06:40:17.715Z,101038.03
2022-08-07T06:42:40.353Z,101045.91
2022-08-07T06:45:21.259Z,101051.72
2022-08-07T06:47:59.181Z,101051.22
2022-08-07T06:50:47.986Z,101048.88
2022-08-07T06:55:29.248Z,101039.78
2022-08-07T06:56:18.907Z,101033.81
2022-08-07T07:00:12.030Z,101022.28
2022-08-07T07:01:50.971Z,101016.91
2022-08-07T07:04:28.656Z,101006.31
2022-08-07T07:07:10.631Z,101000.88
2022-08-07T07:09:54.855Z,100985.47
2022-08-07T07:12:48.484Z,100972.09
2022-08-07T07:15:37.818Z,100977.72
2022-08-07T07:18:47.187Z,100968.50
2022-08-07T07:21:20.680Z,100949.72
2022-08-07T07:24:09.660Z,100946.22
2022-08-07T07:26:51.921Z,100943.19
2022-08-07T07:29:56.318Z,100936.28
2022-08-07T07:32:18.319Z,100929.88
2022-08-07T07:34:53.534Z,100918.84
2022-08-07T07:37:45.428Z,100916.22
2022-08-07T07:40:21.003Z,100916.66
2022-08-07T07:43:11.585Z,100917.03
2022-08-07T07:46:38.104Z,100909.66
2022-08-07T07:48:41.642Z,100909.09
2022-08-07T07:51:19.883Z,100918.25
2022-08-07T07:53:52.753Z,100928.34
2022-08-07T07:56:30.047Z,100944.81
2022-08-07T07:59:03.230Z,100945.47
2022-08-07T08:02:05.238Z,100952.09
2022-08-07T08:04:29.636Z,100961.09
2022-08-07T08:07:02.823Z,100960.94
2022-08-07T08:09:52.358Z,100964.28
2022-08-07T08:12:52.088Z,100965.66
2022-08-07T08:15:23.308Z,100963.25
2022-08-07T08:18:18.049Z,100963.16
2022-08-07T08:20:51.663Z,100966.91
2022-08-07T08:23:44.246Z,100957.88
2022-08-07T08:26:37.755Z,100968.53
2022-08-07T08:29:09.960Z,100969.25
2022-08-07T08:32:10.184Z,100966.69
2022-08-07T08:34:39.107Z,100970.66
2022-08-07T08:38:01.129Z,100967.50
2022-08-07T08:40:04.701Z,100960.09
2022-08-07T08:42:59.939Z,100962.41
2022-08-07T08:45:59.563Z,100963.63
2022-08-07T08:48:52.580Z,100954.81
2022-08-07T08:51:49.580Z,100951.78
2022-08-07T08:54:55.572Z,100952.91
2022-08-07T08:58:24.713Z,100942.19
2022-08-07T09:01:02.065Z,100956.31
2022-08-07T09:03:55.259Z,100957.03
2022-08-07T09:06:37.990Z,100952.19
2022-08-07T09:09:30.092Z,100960.50
2022-08-07T09:12:33.780Z,100958.44
2022-08-07T09:16:20.183Z,100956.94
2022-08-07T09:18:24.743Z,100969.91
2022-08-07T09:22:09.992Z,100979.09
2022-08-07T09:25:00.635Z,100980.59
2022-08-07T09:28:00.092Z,100982.69
2022-08-07T09:30:35.011Z,100986.28
2022-08-07T09:33:52.469Z,100984.13
2022-08-07T09:37:05.319Z,100998.41
2022-08-07T09:39:57.882Z,101005.19
2022-08-07T09:43:05.330Z,101018.63
2022-08-07T09:47:49.424Z,101021.75
2022-08-07T09:50:01.495Z,101026.19
2022-08-07T09:52:34.217Z,101030.56
2022-08-07T09:55:29.900Z,101032.06
2022-08-07T09:58:42.308Z,101040.81
2022-08-07T10:01:53.162Z,101049.09
2022-08-07T10:04:33.311Z,101050.59
2022-08-07T10:07:56.816Z,101057.03
2022-08-07T10:11:07.763Z,101050.91
2022-08-07T10:14:01.474Z,101054.72
2022-08-07T10:16:53.651Z,101051.34
2022-08-07T10:19:38.544Z,101055.28
2022-08-07T10:22:24.897Z,101050.88
2022-08-07T10:25:23.133Z,101056.06
2022-08-07T10:28:16.979Z,101062.47
2022-08-07T10:31:31.432Z,101062.66
2022-08-07T10:34:33.643Z,101074.66
2022-08-07T10:37:18.358Z,101066.78
2022-08-07T10:40:14.160Z,101078.56
2022-08-07T10:43:34.464Z,101085.03
2022-08-07T10:46:20.844Z,101083.78
2022-08-07T10:49:11.195Z,101084.56
2022-08-07T10:52:01.748Z,101097.63
2022-08-07T10:55:07.854Z,101095.88
2022-08-07T10:58:05.511Z,101103.38
2022-08-07T11:00:43.476Z,101105.50
2022-08-07T11:04:17.061Z,101117.44
2022-08-07T11:08:00.338Z,101125.50
2022-08-07T11:10:33.264Z,101126.81
2022-08-07T11:14:41.755Z,101129.78
2022-08-07T11:16:11.464Z,101137.91
2022-08-07T11:18:53.914Z,101141.16
2022-08-07T11:21:40.841Z,101145.13
2022-08-07T11:24:22.072Z,101147.31
2022-08-07T11:27:04.981Z,101143.56
2022-08-07T11:30:17.695Z,101148.31
2022-08-07T11:33:14.197Z,101150.16
2022-08-07T11:36:14.579Z,101164.50
2022-08-07T11:39:06.851Z,101170.06
2022-08-07T11:42:21.491Z,101173.22
2022-08-07T11:45:35.474Z,101169.00
2022-08-07T11:48:33.219Z,101175.59
2022-08-07T11:51:11.349Z,101172.44
2022-08-07T11:54:38.564Z,101171.44
2022-08-07T11:58:00.879Z,101164.13
2022-08-07T12:00:42.323Z,101175.25
2022-08-07T12:03:59.586Z,101176.94
2022-08-07T12:07:09.070Z,101181.09
2022-08-07T12:09:58.518Z,101182.81
2022-08-07T12:12:56.791Z,101186.72
2022-08-07T12:16:05.267Z,101185.63
2022-08-07T12:19:08.726Z,101194.59
2022-08-07T12:21:55.825Z,101181.59
2022-08-07T12:26:21.636Z,101186.13
2022-08-07T12:28:30.977Z,101189.56
2022-08-07T12:31:10.222Z,101175.25
2022-08-07T12:34:01.486Z,101171.28
2022-08-07T12:36:33.963Z,101177.34
2022-08-07T12:39:38.815Z,101165.13
2022-08-07T12:42:00.093Z,101163.09
2022-08-07T12:44:33.691Z,101166.69
2022-08-07T12:47:21.496Z,101165.06
2022-08-07T12:50:34.183Z,101156.25
2022-08-07T12:54:03.021Z,101160.16
2022-08-07T12:56:43.440Z,101155.13
2022-08-07T12:59:33.376Z,101152.47
2022-08-07T13:02:33.303Z,101150.03
2022-08-07T13:06:05.032Z,101154.06
2022-08-07T13:08:32.898Z,101148.59
2022-08-07T13:11:21.341Z,101145.78
2022-08-07T13:13:58.267Z,101162.38
2022-08-07T13:16:51.003Z,101171.50
2022-08-07T13:19:50.629Z,101168.97
2022-08-07T13:22:42.165Z,101169.31
2022-08-07T13:25:24.318Z,101176.13
2022-08-07T13:28:18.381Z,101168.09
2022-08-07T13:31:32.190Z,101159.19
2022-08-07T13:34:32.696Z,101150.50
2022-08-07T13:37:20.056Z,101147.50
2022-08-07T13:40:35.198Z,101134.94
2022-08-07T13:43:03.863Z,101129.75
2022-08-07T13:46:10.948Z,101128.78
2022-08-07T13:48:34.497Z,101125.06
2022-08-07T13:51:28.560Z,101126.31
2022-08-07T13:54:03.078Z,101115.84
2022-08-07T13:56:40.725Z,101106.56
2022-08-07T13:59:27.135Z,101122.25
2022-08-07T14:02:03.851Z,101114.44
2022-08-07T14:04:49.696Z,101112.59
2022-08-07T14:07:23.625Z,101110.44
2022-08-07T14:10:12.052Z,101108.66
2022-08-07T14:12:55.434Z,101108.06
2022-08-07T14:15:42.220Z,101100.69
2022-08-07T14:18:49.896Z,101100.13
2022-08-07T14:22:03.508Z,101097.28
2022-08-07T14:24:44.651Z,101079.03
2022-08-07T14:28:12.930Z,101088.00
2022-08-07T14:30:11.962Z,101101.63
2022-08-07T14:33:04.624Z,101068.09
2022-08-07T14:35:45.579Z,101063.47
2022-08-07T14:38:31.297Z,101057.28
2022-08-07T14:41:15.146Z,101051.13
2022-08-07T14:43:57.810Z,101027.88
2022-08-07T14:46:32.383Z,101030.16
2022-08-07T14:49:17.273Z,101039.28
2022-08-07T14:54:54.056Z,101001.56
2022-08-07T14:57:29.006Z,101008.56
2022-08-07T15:00:20.601Z,100992.78
2022-08-07T15:12:10.672Z,100968.47
2022-08-07T15:15:22.418Z,100961.34
2022-08-07T15:20:55.154Z,100952.81
2022-08-07T15:26:34.948Z,100960.06
2022-08-07T15:30:10.162Z,100955.31
2022-08-07T15:32:05.215Z,100950.75
2022-08-07T15:38:04.797Z,100957.50
2022-08-07T15:40:35.443Z,100956.78
2022-08-07T15:43:33.065Z,100946.63
2022-08-07T15:49:15.524Z,100939.22
2022-08-07T15:54:41.038Z,100915.84
2022-08-07T15:57:27.962Z,100904.03
2022-08-07T16:00:07.755Z,100900.09
2022-08-07T16:02:47.005Z,100898.13
2022-08-07T16:05:23.075Z,100893.56
2022-08-07T16:08:32.778Z,100888.91
2022-08-07T16:11:27.265Z,100886.16
2022-08-07T16:14:19.457Z,100881.03
2022-08-07T16:17:15.027Z,100883.06
2022-08-07T16:20:34.302Z,100876.13
2022-08-07T16:23:54.064Z,100875.97
2022-08-07T16:26:30.833Z,100860.50
2022-08-07T16:30:05.379Z,100857.75
2022-08-07T16:32:33.218Z,100846.28
2022-08-07T16:35:59.394Z,100847.03
2022-08-07T16:38:57.330Z,100846.66
2022-08-07T16:41:41.509Z,100837.22
2022-08-07T16:44:55.455Z,100843.78
2022-08-07T16:47:56.533Z,100845.97
2022-08-07T16:51:13.406Z,100835.00
2022-08-07T16:54:02.945Z,100831.66
2022-08-07T16:56:46.168Z,100819.50
2022-08-07T16:59:46.962Z,100820.47
2022-08-07T17:02:51.242Z,100811.66
2022-08-07T17:06:19.876Z,100806.81
2022-08-07T17:09:04.334Z,100799.28
2022-08-07T17:12:01.547Z,100805.13
2022-08-07T17:15:01.746Z,100809.25
2022-08-07T17:17:48.349Z,100813.69
2022-08-07T17:20:38.627Z,100812.63
2022-08-07T17:23:39.136Z,100803.81
2022-08-07T17:26:30.705Z,100794.75
2022-08-07T17:30:14.048Z,100792.72
2022-08-07T17:32:58.550Z,100785.97
2022-08-07T17:35:51.177Z,100782.44
2022-08-07T17:38:33.859Z,100775.34
2022-08-07T17:42:00.762Z,100764.41
2022-08-07T17:44:06.500Z,100750.13
2022-08-07T17:47:16.587Z,100747.75
2022-08-07T17:50:02.963Z,100761.97
2022-08-07T17:52:40.336Z,100752.66
2022-08-07T17:55:55.620Z,100756.94
2022-08-07T17:58:30.686Z,100756.06
2022-08-07T18:01:20.879Z,100758.66
2022-08-07T18:04:31.155Z,100757.91
2022-08-07T18:07:22.672Z,100763.59
2022-08-07T18:10:07.602Z,100752.34
2022-08-07T18:13:20.568Z,100751.66
2022-08-07T18:16:31.110Z,100751.47
2022-08-07T18:21:12.558Z,100758.28
2022-08-07T18:22:16.953Z,100750.91
2022-08-07T18:24:59.197Z,100753.00
2022-08-07T18:27:50.454Z,100749.84
2022-08-07T18:30:36.860Z,100738.38
2022-08-07T18:33:18.780Z,100736.69
2022-08-07T18:36:17.073Z,100739.31
2022-08-07T18:40:08.819Z,100730.22
2022-08-07T18:42:17.559Z,100732.06
2022-08-07T18:45:44.365Z,100733.00
2022-08-07T18:48:06.980Z,100731.69
2022-08-07T18:51:15.678Z,100735.91
2022-08-07T18:54:04.452Z,100741.22
2022-08-07T18:56:39.273Z,100737.09
2022-08-07T18:59:59.040Z,100748.81
2022-08-07T19:02:56.608Z,100752.28
2022-08-07T19:06:04.193Z,100755.84
2022-08-07T19:08:52.347Z,100763.13
2022-08-07T19:12:04.062Z,100764.44
2022-08-07T19:14:53.819Z,100776.22
2022-08-07T19:17:59.463Z,100773.47
2022-08-07T19:21:46.629Z,100778.06
2022-08-07T19:24:11.398Z,100796.28
2022-08-07T19:28:58.666Z,100791.53
2022-08-07T19:31:00.404Z,100786.97
2022-08-07T19:33:00.576Z,100793.91
2022-08-07T19:35:34.519Z,100800.81
2022-08-07T19:38:16.731Z,100792.91
2022-08-07T19:40:51.514Z,100799.28
2022-08-07T19:43:50.076Z,100802.50
2022-08-07T19:46:26.651Z,100802.50
2022-08-07T19:49:06.873Z,100819.22
2022-08-07T19:51:52.591Z,100817.22
2022-08-07T19:54:31.282Z,100821.41
2022-08-07T19:58:02.108Z,100827.53
2022-08-07T20:00:08.887Z,100828.06
2022-08-07T20:03:02.552Z,100835.91
2022-08-07T20:06:00.351Z,100843.47
2022-08-07T20:08:31.448Z,100848.97
2022-08-07T20:11:14.992Z,100840.97
2022-08-07T20:14:01.248Z,100849.56
2022-08-07T20:16:36.651Z,100857.25
2022-08-07T20:19:10.365Z,100855.47
2022-08-07T20:21:48.303Z,100862.88
2022-08-07T20:24:28.707Z,100868.50
2022-08-07T20:27:05.266Z,100871.19
2022-08-07T20:30:00.330Z,100883.00
2022-08-07T20:32:45.372Z,100882.47
2022-08-07T20:35:21.980Z,100880.78
2022-08-07T20:37:59.789Z,100877.81
2022-08-07T20:40:45.065Z,100877.94
2022-08-07T20:43:26.645Z,100875.88
2022-08-07T20:46:29.729Z,100889.00
2022-08-07T20:49:55.100Z,100881.28
2022-08-07T20:51:50.267Z,100892.28
2022-08-07T20:54:29.688Z,100892.88
2022-08-07T20:57:08.389Z,100889.09
2022-08-07T21:00:07.107Z,100892.50
2022-08-07T21:02:53.878Z,100899.44
2022-08-07T21:05:51.461Z,100906.22
2022-08-07T21:08:43.896Z,100918.31
2022-08-07T21:11:22.036Z,100924.28
2022-08-07T21:14:32.905Z,100915.28
2022-08-07T21:18:03.823Z,100930.13
2022-08-07T21:20:05.565Z,100926.84
2022-08-07T21:22:45.019Z,100940.91
2022-08-07T21:25:21.427Z,100946.78
2022-08-07T21:28:09.049Z,100950.63
2022-08-07T21:30:51.131Z,100962.91
2022-08-07T21:33:41.362Z,100953.50
2022-08-07T21:36:31.646Z,100954.66
2022-08-07T21:39:45.357Z,100952.84
2022-08-07T21:42:46.814Z,100964.41
2022-08-07T21:46:09.794Z,100960.56
2022-08-07T21:49:01.612Z,100960.88
2022-08-07T21:51:51.363Z,100961.41
2022-08-07T21:55:07.403Z,100962.91
2022-08-07T21:58:02.323Z,100974.06
2022-08-07T22:00:34.175Z,100989.00
2022-08-07T22:03:31.981Z,100977.47
2022-08-07T22:06:28.787Z,100983.75
2022-08-07T22:09:26.583Z,100984.38
2022-08-07T22:12:12.402Z,100996.22
2022-08-07T22:15:04.094Z,101002.97
2022-08-07T22:18:03.808Z,101000.34
2022-08-07T22:20:51.776Z,101001.75
2022-08-07T22:23:26.377Z,100997.47
2022-08-07T22:26:32.121Z,100995.00
2022-08-07T22:29:05.046Z,101011.31
2022-08-07T22:31:59.230Z,101013.00
2022-08-07T22:35:03.200Z,101016.50
2022-08-07T22:38:06.211Z,101015.63
2022-08-07T22:40:48.767Z,101015.03
2022-08-07T22:43:31.452Z,101008.25
2022-08-07T22:46:46.809Z,101013.34
2022-08-07T22:49:54.903Z,101003.19
2022-08-07T22:53:00.309Z,101009.41
2022-08-07T22:55:49.560Z,101028.66
2022-08-07T22:58:43.675Z,101027.03
2022-08-07T23:01:49.994Z,101023.59
2022-08-07T23:04:57.057Z,101025.06
2022-08-07T23:07:46.453Z,101019.75
2022-08-07T23:10:36.497Z,101024.19
2022-08-07T23:13:29.128Z,101033.50
2022-08-07T23:16:46.926Z,101038.59
2022-08-07T23:19:52.158Z,101046.53
2022-08-07T23:22:45.503Z,101049.28
2022-08-07T23:25:44.373Z,101045.44
2022-08-07T23:28:21.816Z,101046.34
2022-08-07T23:31:18.827Z,101054.25
2022-08-07T23:34:37.539Z,101049.41
2022-08-07T23:37:29.355Z,101054.22
2022-08-07T23:40:28.142Z,101053.56
2022-08-07T23:43:37.626Z,101053.94
2022-08-07T23:46:40.293Z,101057.13
2022-08-07T23:49:25.022Z,101054.50
2022-08-07T23:53:01.917Z,101065.19
2022-08-07T23:55:52.739Z,101063.59
2022-08-07T23:58:54.692Z,101063.78
